Time;durP1;ratioP1;P1;durP2;ratioP2;P2;SDS_P1;SDS_P2;PMS_P1;PMS_P2;Temp;Humidity;BMP_temperature;BMP_pressure;BME280_temperature;BME280_humidity;BME280_pressure;Samples;Min_cycle;Max_cycle;Signal;HPM_P1;HPM_P2
2023/01/06 00:00:30;;;;;;;12.75;8.68;;;;;;;8.63;nan;95418.72;4981573;28;20212;-71
2023/01/06 00:02:57;;;;;;;15.32;8.60;;;;;;;8.82;nan;95440.28;4981745;28;20267;-71
2023/01/06 00:05:24;;;;;;;11.95;8.90;;;;;;;8.76;nan;95437.03;4980297;28;21062;-70
2023/01/06 00:07:51;;;;;;;9.60;8.23;;;;;;;8.78;nan;95433.59;4981125;28;20614;-71
2023/01/06 00:10:18;;;;;;;14.18;7.60;;;;;;;8.85;nan;95445.28;4980725;28;20804;-69
2023/01/06 00:12:45;;;;;;;12.35;8.18;;;;;;;8.74;nan;95431.16;4981202;28;20237;-69
2023/01/06 00:15:12;;;;;;;10.38;7.50;;;;;;;8.85;nan;95444.44;4982667;28;20208;-70
2023/01/06 00:17:41;;;;;;;10.85;7.50;;;;;;;8.83;nan;95457.16;4981871;28;20219;-70
2023/01/06 00:20:09;;;;;;;10.18;7.22;;;;;;;8.81;nan;95451.28;4981133;28;20219;-70
2023/01/06 00:22:36;;;;;;;7.93;7.03;;;;;;;8.86;nan;95458.78;4981431;28;20212;-71
2023/01/06 00:25:02;;;;;;;8.57;6.57;;;;;;;8.92;nan;95467.94;4983088;28;20209;-70
2023/01/06 00:27:31;;;;;;;11.07;8.23;;;;;;;9.04;nan;95470.25;4981974;28;20756;-70
2023/01/06 00:29:58;;;;;;;7.32;6.60;;;;;;;9.07;nan;95462.56;4981277;28;20964;-70
2023/01/06 00:32:25;;;;;;;11.50;6.78;;;;;;;9.20;nan;95464.78;4982522;28;20224;-70
2023/01/06 00:34:53;;;;;;;6.70;6.10;;;;;;;9.28;nan;95462.09;4983210;28;20208;-70
2023/01/06 00:37:20;;;;;;;10.60;7.47;;;;;;;9.24;nan;95464.72;4981755;28;20455;-71
2023/01/06 00:39:46;;;;;;;10.32;6.82;;;;;;;9.36;nan;95467.00;4981909;28;20239;-70
2023/01/06 00:42:13;;;;;;;8.35;5.85;;;;;;;9.45;nan;95465.09;4981909;28;20208;-69
2023/01/06 00:44:40;;;;;;;8.10;6.20;;;;;;;9.47;nan;95468.41;4981878;28;20216;-69
2023/01/06 00:47:09;;;;;;;9.00;6.13;;;;;;;9.54;nan;95474.19;4981989;28;20218;-70
2023/01/06 00:49:36;;;;;;;7.18;6.57;;;;;;;9.55;nan;95471.63;4981162;28;20215;-70
2023/01/06 00:52:05;;;;;;;6.25;5.75;;;;;;;9.49;nan;95455.72;4982427;28;20239;-71
2023/01/06 00:54:32;;;;;;;8.35;5.90;;;;;;;9.60;nan;95468.16;4982182;28;20599;-71
2023/01/06 00:56:59;;;;;;;6.25;5.65;;;;;;;9.70;nan;95479.75;4982506;28;20208;-70
2023/01/06 00:59:26;;;;;;;9.10;6.40;;;;;;;9.71;nan;95483.94;4980073;28;20200;-71
2023/01/06 01:01:55;;;;;;;7.88;6.13;;;;;;;9.70;nan;95479.75;4981874;28;20213;-71
2023/01/06 01:04:22;;;;;;;7.35;6.65;;;;;;;9.71;nan;95477.16;4982309;28;20245;-71
2023/01/06 01:06:50;;;;;;;6.72;5.70;;;;;;;9.78;nan;95483.78;4980752;28;20312;-71
2023/01/06 01:09:20;;;;;;;7.60;5.30;;;;;;;9.84;nan;95475.19;4979498;28;20204;-70
2023/01/06 01:14:32;;;;;;;5.65;5.15;;;;;;;9.85;nan;95470.06;4982080;28;20634;-70
2023/01/06 01:16:59;;;;;;;5.93;5.43;;;;;;;9.92;nan;95470.75;4982614;28;20209;-72
2023/01/06 01:19:27;;;;;;;5.72;4.88;;;;;;;9.93;nan;95476.66;4980713;28;20202;-69
2023/01/06 01:21:54;;;;;;;5.75;5.10;;;;;;;9.96;nan;95472.34;4982112;28;20217;-71
2023/01/06 01:24:22;;;;;;;10.25;5.70;;;;;;;10.01;nan;95465.44;4982401;28;20696;-70
2023/01/06 01:26:49;;;;;;;5.55;5.07;;;;;;;10.02;nan;95479.81;4985810;28;20209;-71
2023/01/06 01:29:18;;;;;;;5.25;4.72;;;;;;;9.92;nan;95463.13;4985109;28;20534;-71
2023/01/06 01:31:45;;;;;;;5.05;4.50;;;;;;;10.03;nan;95481.47;4985414;28;20212;-70
2023/01/06 01:34:13;;;;;;;6.35;5.65;;;;;;;9.98;nan;95485.84;4985206;28;20435;-69
2023/01/06 01:36:41;;;;;;;7.53;4.80;;;;;;;10.03;nan;95478.94;4984801;28;20217;-72
2023/01/06 01:39:08;;;;;;;7.68;4.97;;;;;;;10.00;nan;95478.19;4983393;28;20220;-72
2023/01/06 01:41:36;;;;;;;5.90;5.15;;;;;;;9.94;nan;95458.84;4985363;28;21129;-70
2023/01/06 01:44:24;;;;;;;6.47;4.90;;;;;;;10.01;nan;95457.81;4986016;28;20209;-70
2023/01/06 01:46:51;;;;;;;6.13;4.97;;;;;;;10.12;nan;95433.00;4982643;28;20204;-68
2023/01/06 01:49:21;;;;;;;5.68;4.47;;;;;;;10.16;nan;95424.41;4982942;28;20274;-70
2023/01/06 01:51:50;;;;;;;4.97;4.57;;;;;;;10.19;nan;95436.22;4984200;28;20216;-70
2023/01/06 01:54:24;;;;;;;5.95;4.50;;;;;;;10.19;nan;95432.00;4984671;28;20224;-69
2023/01/06 01:56:57;;;;;;;5.82;4.82;;;;;;;10.06;nan;95433.16;4983559;28;20212;-70
2023/01/06 01:59:28;;;;;;;4.65;4.20;;;;;;;10.06;nan;95427.25;4983200;28;20213;-70
2023/01/06 02:01:55;;;;;;;4.47;4.05;;;;;;;10.18;nan;95440.44;4982289;28;20205;-70
2023/01/06 02:04:25;;;;;;;4.28;3.78;;;;;;;10.15;nan;95443.06;4983389;28;20302;-70
2023/01/06 02:06:52;;;;;;;4.80;3.28;;;;;;;10.15;nan;95448.13;4983979;28;20207;-70
2023/01/06 02:09:26;;;;;;;7.15;4.18;;;;;;;10.18;nan;95442.97;4983290;28;20212;-70
2023/01/06 02:11:56;;;;;;;9.90;3.95;;;;;;;10.18;nan;95458.22;4982908;28;20228;-70
2023/01/06 02:14:25;;;;;;;4.07;3.72;;;;;;;10.23;nan;95469.13;4983200;28;20228;-72
2023/01/06 02:17:16;;;;;;;4.22;3.83;;;;;;;10.22;nan;95470.00;4983251;28;20584;-69
2023/01/06 02:20:16;;;;;;;4.68;3.90;;;;;;;10.26;nan;95470.78;4982021;28;20250;-72
2023/01/06 02:23:08;;;;;;;4.38;4.00;;;;;;;10.26;nan;95480.09;4982859;28;20216;-70
2023/01/06 02:26:10;;;;;;;4.22;3.83;;;;;;;10.21;nan;95477.66;4983360;28;20308;-72
2023/01/06 02:28:58;;;;;;;5.60;3.55;;;;;;;10.21;nan;95492.91;4983965;28;20693;-70
2023/01/06 02:31:58;;;;;;;4.03;3.67;;;;;;;10.21;nan;95478.50;4982384;28;20643;-71
2023/01/06 02:34:40;;;;;;;4.88;3.60;;;;;;;10.23;nan;95481.00;4983995;28;20692;-70
2023/01/06 02:37:25;;;;;;;3.58;3.28;;;;;;;10.22;nan;95486.94;4983888;28;20216;-70
2023/01/06 02:40:09;;;;;;;3.47;3.20;;;;;;;10.17;nan;95491.28;4983338;28;20678;-70
2023/01/06 02:42:45;;;;;;;3.90;3.50;;;;;;;10.29;nan;95472.41;4984167;28;20646;-70
2023/01/06 02:45:21;;;;;;;3.92;3.50;;;;;;;10.32;nan;95470.63;4984206;28;20753;-71
2023/01/06 02:47:58;;;;;;;4.32;3.38;;;;;;;10.27;nan;95462.28;4984669;28;20266;-71
2023/01/06 02:50:37;;;;;;;4.25;3.85;;;;;;;10.19;nan;95459.94;4983235;28;20251;-71
2023/01/06 02:53:10;;;;;;;3.90;3.58;;;;;;;10.25;nan;95464.03;4983729;28;20243;-70
2023/01/06 02:55:42;;;;;;;4.05;3.75;;;;;;;10.28;nan;95460.56;4984562;28;20213;-70
2023/01/06 02:58:15;;;;;;;5.80;4.05;;;;;;;10.38;nan;95464.56;4984210;28;20209;-71
2023/01/06 03:00:45;;;;;;;4.50;4.10;;;;;;;10.41;nan;95462.72;4982164;28;20236;-70
2023/01/06 03:03:17;;;;;;;4.28;3.88;;;;;;;10.22;nan;95467.47;4984386;28;20205;-71
2023/01/06 03:05:49;;;;;;;4.03;3.65;;;;;;;10.01;nan;95431.59;4983584;28;20208;-70
2023/01/06 03:08:18;;;;;;;6.03;3.33;;;;;;;10.16;nan;95452.34;4982685;28;20216;-70
2023/01/06 03:10:47;;;;;;;8.98;5.15;;;;;;;10.08;nan;95446.66;4983161;28;20258;-70
2023/01/06 03:13:19;;;;;;;5.03;4.63;;;;;;;10.07;nan;95455.13;4981942;28;20243;-70
2023/01/06 03:15:45;;;;;;;4.43;4.05;;;;;;;10.18;nan;95450.59;4983840;28;20677;-70
2023/01/06 03:18:14;;;;;;;6.28;4.97;;;;;;;10.05;nan;95464.50;4983551;28;20678;-70
2023/01/06 03:20:40;;;;;;;3.70;3.35;;;;;;;9.95;nan;95464.75;4982151;28;20205;-70
2023/01/06 03:23:07;;;;;;;4.53;3.97;;;;;;;9.84;nan;95468.41;4983225;28;20221;-69
2023/01/06 03:25:34;;;;;;;7.70;4.00;;;;;;;9.85;nan;95475.16;4984121;28;20213;-70
2023/01/06 03:28:01;;;;;;;5.35;3.70;;;;;;;9.80;nan;95486.28;4982980;28;20212;-70
2023/01/06 03:30:35;;;;;;;4.30;4.00;;;;;;;9.79;nan;95479.53;4982997;28;20271;-70
2023/01/06 03:33:06;;;;;;;3.80;3.50;;;;;;;9.68;nan;95484.84;4982284;28;20204;-69
2023/01/06 03:35:48;;;;;;;4.30;3.95;;;;;;;9.60;nan;95480.84;4983159;28;20584;-70
2023/01/06 03:38:26;;;;;;;4.30;3.65;;;;;;;9.47;nan;95478.56;4983780;28;20208;-69
2023/01/06 03:40:59;;;;;;;4.72;3.35;;;;;;;9.43;nan;95466.81;4981512;28;20647;-69
2023/01/06 03:43:33;;;;;;;5.78;3.65;;;;;;;9.38;nan;95468.66;4983085;28;20217;-70
2023/01/06 03:46:14;;;;;;;4.10;3.80;;;;;;;9.31;nan;95454.44;4982765;28;20596;-69
2023/01/06 03:48:50;;;;;;;5.25;3.80;;;;;;;9.32;nan;95451.03;4981977;28;20218;-69
2023/01/06 03:51:31;;;;;;;5.18;4.10;;;;;;;9.15;nan;95458.19;4982001;28;20212;-71
2023/01/06 03:54:02;;;;;;;5.35;4.03;;;;;;;9.11;nan;95457.41;4983003;28;20228;-70
2023/01/06 03:56:32;;;;;;;5.05;4.10;;;;;;;9.03;nan;95456.72;4982728;28;20324;-70
2023/01/06 03:59:04;;;;;;;4.20;3.85;;;;;;;8.92;nan;95462.88;4982466;28;20208;-69
2023/01/06 04:01:32;;;;;;;4.38;3.97;;;;;;;8.90;nan;95464.63;4981576;28;20233;-70
2023/01/06 04:03:58;;;;;;;6.82;4.05;;;;;;;8.90;nan;95472.25;4981655;28;20203;-69
2023/01/06 04:06:27;;;;;;;6.00;4.38;;;;;;;9.02;nan;95475.34;4981588;28;20215;-70
2023/01/06 04:08:53;;;;;;;5.22;4.32;;;;;;;9.01;nan;95483.81;4981526;28;20569;-70
2023/01/06 04:14:04;;;;;;;4.25;3.83;;;;;;;9.02;nan;95497.31;4982544;28;20247;-69
2023/01/06 04:16:31;;;;;;;5.35;4.50;;;;;;;9.08;nan;95507.34;4981563;28;20594;-69
2023/01/06 04:18:58;;;;;;;6.25;4.35;;;;;;;9.12;nan;95501.34;4981918;28;20263;-72
2023/01/06 04:21:24;;;;;;;3.97;3.60;;;;;;;8.87;nan;95501.00;4981043;28;20205;-71
2023/01/06 04:23:53;;;;;;;4.18;3.78;;;;;;;8.82;nan;95508.69;4982531;28;20196;-71
2023/01/06 04:26:19;;;;;;;4.65;4.20;;;;;;;8.78;nan;95507.09;4981676;28;20259;-71
2023/01/06 04:28:46;;;;;;;4.45;4.05;;;;;;;8.83;nan;95504.47;4980579;28;20207;-71
2023/01/06 04:31:13;;;;;;;4.38;3.88;;;;;;;8.76;nan;95518.94;4982328;28;20280;-71
2023/01/06 04:33:40;;;;;;;4.28;3.88;;;;;;;8.83;nan;95520.50;4983379;28;20267;-70
2023/01/06 04:36:08;;;;;;;4.10;3.75;;;;;;;8.82;nan;95523.91;4982288;28;20209;-71
2023/01/06 04:38:35;;;;;;;4.47;3.75;;;;;;;8.86;nan;95520.44;4982430;28;20286;-70
2023/01/06 04:41:04;;;;;;;3.60;3.25;;;;;;;8.86;nan;95517.91;4981605;28;20219;-69
2023/01/06 04:43:31;;;;;;;5.00;3.50;;;;;;;8.76;nan;95513.88;4982629;28;20333;-71
2023/01/06 04:45:58;;;;;;;4.22;3.17;;;;;;;8.82;nan;95518.84;4981993;28;20216;-71
2023/01/06 04:48:25;;;;;;;3.92;3.00;;;;;;;8.78;nan;95517.22;4982102;28;20271;-71
2023/01/06 04:51:00;;;;;;;3.83;3.03;;;;;;;8.71;nan;95520.72;4981412;28;20223;-70
2023/01/06 04:53:26;;;;;;;3.28;2.97;;;;;;;8.69;nan;95517.38;4979437;28;20227;-71
2023/01/06 04:55:53;;;;;;;3.67;3.42;;;;;;;8.74;nan;95535.88;4980336;28;20712;-69
2023/01/06 04:58:21;;;;;;;4.47;2.70;;;;;;;8.61;nan;95543.75;4982169;28;20208;-70
2023/01/06 05:00:48;;;;;;;3.55;3.10;;;;;;;8.66;nan;95547.84;4984967;28;20244;-71
2023/01/06 05:03:15;;;;;;;2.90;2.70;;;;;;;8.77;nan;95553.56;4985382;28;20210;-70
2023/01/06 05:05:41;;;;;;;2.80;2.60;;;;;;;8.88;nan;95544.94;4985255;28;20201;-71
2023/01/06 05:08:08;;;;;;;5.90;3.22;;;;;;;8.75;nan;95547.69;4985117;28;20278;-70
2023/01/06 05:10:35;;;;;;;3.58;3.00;;;;;;;8.85;nan;95556.78;4985438;28;20242;-70
2023/01/06 05:13:01;;;;;;;4.47;2.90;;;;;;;8.86;nan;95561.00;4983589;28;20294;-71
2023/01/06 05:15:30;;;;;;;3.45;2.97;;;;;;;8.89;nan;95546.59;4983682;28;20687;-70
2023/01/06 05:17:56;;;;;;;4.00;3.20;;;;;;;8.76;nan;95551.06;4983500;28;20211;-71
2023/01/06 05:20:23;;;;;;;3.08;2.88;;;;;;;8.75;nan;95557.81;4984168;28;20240;-70
2023/01/06 05:22:50;;;;;;;7.45;3.00;;;;;;;8.63;nan;95557.22;4984643;28;20266;-69
2023/01/06 05:25:17;;;;;;;3.55;3.25;;;;;;;8.58;nan;95561.53;4985658;28;20439;-69
2023/01/06 05:27:43;;;;;;;2.95;2.75;;;;;;;8.68;nan;95574.00;4984753;28;20615;-72
2023/01/06 05:30:11;;;;;;;3.90;3.60;;;;;;;8.59;nan;95575.88;4984415;28;20826;-70
2023/01/06 05:32:39;;;;;;;9.77;7.82;;;;;;;8.60;nan;95583.44;4986360;28;20208;-70
2023/01/06 05:35:07;;;;;;;11.60;5.32;;;;;;;8.57;nan;95591.09;4985117;28;20236;-71
2023/01/06 05:37:34;;;;;;;8.50;4.75;;;;;;;8.41;nan;95597.28;4984906;28;20231;-70
2023/01/06 05:40:01;;;;;;;4.13;3.55;;;;;;;8.49;nan;95600.50;4985192;28;20287;-69
2023/01/06 05:42:28;;;;;;;16.45;10.82;;;;;;;8.40;nan;95595.63;4986109;28;20279;-70
2023/01/06 05:44:54;;;;;;;6.35;4.70;;;;;;;8.50;nan;95599.66;4984526;28;20894;-71
2023/01/06 05:47:21;;;;;;;5.80;3.35;;;;;;;8.48;nan;95588.72;4985413;28;20243;-72
2023/01/06 05:49:49;;;;;;;8.27;4.47;;;;;;;8.45;nan;95589.59;4985166;28;20233;-70
2023/01/06 05:52:16;;;;;;;4.90;3.55;;;;;;;8.47;nan;95594.63;4985082;28;20235;-69
2023/01/06 05:54:43;;;;;;;4.85;3.42;;;;;;;8.48;nan;95593.78;4985075;28;20228;-70
2023/01/06 05:57:10;;;;;;;7.28;5.20;;;;;;;8.42;nan;95594.72;4985375;28;20216;-71
2023/01/06 05:59:37;;;;;;;5.90;5.00;;;;;;;8.41;nan;95602.38;4983932;28;20223;-71
2023/01/06 06:02:04;;;;;;;6.43;3.65;;;;;;;8.40;nan;95600.69;4985420;28;20693;-70
2023/01/06 06:04:30;;;;;;;3.75;3.45;;;;;;;8.52;nan;95591.16;4985637;28;20208;-70
2023/01/06 06:06:58;;;;;;;4.07;3.17;;;;;;;8.58;nan;95590.25;4984841;28;20204;-71
2023/01/06 06:09:25;;;;;;;4.97;4.47;;;;;;;8.69;nan;95588.34;4983320;28;20204;-71
2023/01/06 06:11:53;;;;;;;8.98;7.30;;;;;;;9.00;nan;95580.16;4983700;28;20232;-70
2023/01/06 06:14:20;;;;;;;5.30;4.00;;;;;;;9.41;nan;95571.72;4985379;28;20224;-70
2023/01/06 06:16:47;;;;;;;3.78;3.47;;;;;;;9.85;nan;95570.78;4985410;28;20675;-72
2023/01/06 06:19:14;;;;;;;4.50;3.55;;;;;;;9.93;nan;95568.88;4984652;28;20298;-70
2023/01/06 06:21:41;;;;;;;3.30;3.00;;;;;;;9.73;nan;95573.56;4984450;28;20270;-70
2023/01/06 06:24:10;;;;;;;6.80;3.83;;;;;;;9.53;nan;95569.78;4984552;28;20649;-70
2023/01/06 06:26:36;;;;;;;5.25;4.07;;;;;;;9.30;nan;95582.09;4984096;28;20679;-71
2023/01/06 06:29:05;;;;;;;6.30;3.85;;;;;;;9.29;nan;95592.28;4983148;28;20209;-70
2023/01/06 06:31:32;;;;;;;6.78;3.53;;;;;;;9.26;nan;95590.63;4985788;28;20215;-70
2023/01/06 06:34:02;;;;;;;5.35;2.92;;;;;;;9.26;nan;95599.94;4985091;28;20208;-72
2023/01/06 06:36:30;;;;;;;4.15;2.90;;;;;;;9.27;nan;95597.38;4984073;28;20299;-71
2023/01/06 06:38:58;;;;;;;7.28;3.00;;;;;;;9.38;nan;95605.63;4983830;28;20213;-70
2023/01/06 06:41:26;;;;;;;3.28;2.97;;;;;;;9.47;nan;95604.59;4985212;28;20205;-70
2023/01/06 06:43:53;;;;;;;5.30;2.47;;;;;;;9.42;nan;95617.34;4984965;28;20212;-69
2023/01/06 06:46:20;;;;;;;4.93;3.03;;;;;;;9.39;nan;95609.00;4984794;28;20579;-71
2023/01/06 06:48:48;;;;;;;3.17;2.97;;;;;;;9.53;nan;95610.38;4984194;28;20208;-71
2023/01/06 06:51:17;;;;;;;4.38;2.80;;;;;;;9.52;nan;95623.09;4983673;28;20702;-72
2023/01/06 06:53:44;;;;;;;7.18;3.20;;;;;;;9.65;nan;95624.50;4984511;28;20208;-70
2023/01/06 06:56:11;;;;;;;3.45;3.15;;;;;;;9.86;nan;95628.31;4985255;28;20229;-70
2023/01/06 06:58:40;;;;;;;6.05;3.97;;;;;;;10.09;nan;95640.50;4984275;28;20209;-72
2023/01/06 07:01:07;;;;;;;10.07;5.13;;;;;;;10.32;nan;95633.22;4984047;28;20208;-71
2023/01/06 07:03:34;;;;;;;12.50;6.63;;;;;;;10.59;nan;95636.78;4983656;28;20220;-72
2023/01/06 07:06:02;;;;;;;6.10;5.25;;;;;;;10.91;nan;95639.34;4983686;28;20215;-71
2023/01/06 07:08:31;;;;;;;7.13;4.50;;;;;;;11.16;nan;95639.53;4984215;28;20219;-72
2023/01/06 07:10:58;;;;;;;4.00;3.42;;;;;;;11.48;nan;95638.66;4983103;28;20697;-71
2023/01/06 07:13:25;;;;;;;4.38;3.30;;;;;;;11.76;nan;95645.53;4983454;28;20248;-71
2023/01/06 07:15:53;;;;;;;4.13;2.70;;;;;;;12.35;nan;95625.09;4983181;28;20233;-70
2023/01/06 07:18:20;;;;;;;6.35;2.40;;;;;;;14.29;nan;95628.44;4984197;28;20677;-71
2023/01/06 07:20:48;;;;;;;2.40;2.17;;;;;;;-142.91;nan;95628.44;4982912;28;20212;-71
2023/01/06 07:23:15;;;;;;;1.90;1.80;;;;;;;19.07;nan;95626.72;4983584;28;20243;-72
2023/01/06 07:25:41;;;;;;;4.30;2.55;;;;;;;20.95;nan;95622.81;4983184;28;20200;-71
2023/01/06 07:28:08;;;;;;;3.97;2.90;;;;;;;22.18;nan;95630.88;4984011;28;20212;-71
2023/01/06 07:30:36;;;;;;;3.03;2.20;;;;;;;23.04;nan;95627.19;4983399;28;20212;-70
2023/01/06 07:33:04;;;;;;;5.85;2.60;;;;;;;23.89;nan;95629.50;4983566;28;20208;-70
2023/01/06 07:35:31;;;;;;;2.40;2.13;;;;;;;23.41;nan;95647.81;4983044;28;20317;-72
2023/01/06 07:38:03;;;;;;;4.00;3.35;;;;;;;21.72;nan;95647.81;4983479;28;20263;-70
2023/01/06 07:40:30;;;;;;;4.88;3.65;;;;;;;19.97;nan;95645.41;4983526;28;20674;-68
2023/01/06 07:42:57;;;;;;;5.18;3.35;;;;;;;18.76;nan;95654.25;4982616;28;20804;-71
2023/01/06 07:45:23;;;;;;;3.50;3.03;;;;;;;17.96;nan;95660.28;4983358;28;20205;-72
2023/01/06 07:47:50;;;;;;;4.40;2.67;;;;;;;17.93;nan;95669.91;4983074;28;20679;-71
2023/01/06 07:50:18;;;;;;;6.03;4.35;;;;;;;17.97;nan;95666.28;4983149;28;20714;-72
2023/01/06 07:52:45;;;;;;;5.80;2.70;;;;;;;17.55;nan;95665.00;4983419;28;20212;-71
2023/01/06 07:55:12;;;;;;;5.82;3.13;;;;;;;17.54;nan;95668.47;4982576;28;20239;-72
2023/01/06 07:57:38;;;;;;;3.90;2.53;;;;;;;18.17;nan;95668.59;4982883;28;20274;-73
2023/01/06 08:00:06;;;;;;;5.45;4.18;;;;;;;18.30;nan;95668.78;4983161;28;20212;-73
2023/01/06 08:02:33;;;;;;;6.97;3.08;;;;;;;17.48;nan;95667.94;4982124;28;20803;-71
2023/01/06 08:04:59;;;;;;;4.03;2.53;;;;;;;17.21;nan;95670.16;4981994;28;20212;-70
2023/01/06 08:07:28;;;;;;;2.42;2.22;;;;;;;16.74;nan;95664.78;4982676;28;20209;-70
2023/01/06 08:09:54;;;;;;;2.45;2.25;;;;;;;17.64;nan;95672.25;4982210;28;20219;-70
2023/01/06 08:12:21;;;;;;;3.03;2.67;;;;;;;17.78;nan;95668.16;4982494;28;20244;-70
2023/01/06 08:14:48;;;;;;;4.95;2.60;;;;;;;18.54;nan;95670.03;4982409;28;20224;-72
2023/01/06 08:17:14;;;;;;;4.93;2.28;;;;;;;18.92;nan;95667.06;4982873;28;20266;-70
2023/01/06 08:19:41;;;;;;;2.90;1.88;;;;;;;18.48;nan;95661.81;4981721;28;20323;-71
2023/01/06 08:22:08;;;;;;;2.40;1.63;;;;;;;17.84;nan;95666.06;4982197;28;20611;-70
2023/01/06 08:24:36;;;;;;;2.30;1.90;;;;;;;16.80;nan;95685.88;4983562;28;20216;-71
2023/01/06 08:27:03;;;;;;;2.83;1.58;;;;;;;15.91;nan;95678.84;4982910;28;20208;-69
2023/01/06 08:29:29;;;;;;;2.22;2.03;;;;;;;15.41;nan;95693.00;4983175;28;20209;-72
2023/01/06 08:31:56;;;;;;;3.33;1.70;;;;;;;15.24;nan;95691.16;4982381;28;22140;-71
2023/01/06 08:34:23;;;;;;;4.15;2.45;;;;;;;15.13;nan;95695.88;4982249;28;20701;-71
2023/01/06 08:36:51;;;;;;;2.28;2.05;;;;;;;14.70;nan;95697.59;4982082;28;20229;-70
2023/01/06 08:39:18;;;;;;;4.75;2.08;;;;;;;14.29;nan;95705.13;4981627;28;20591;-71
2023/01/06 08:41:50;;;;;;;1.63;1.52;;;;;;;14.07;nan;95701.72;4979632;28;20228;-71
2023/01/06 08:44:17;;;;;;;2.58;1.65;;;;;;;14.09;nan;95694.84;4981937;28;20668;-71
2023/01/06 08:46:44;;;;;;;1.73;1.63;;;;;;;14.29;nan;95694.06;4981879;28;20212;-71
2023/01/06 08:49:10;;;;;;;7.65;1.58;;;;;;;14.28;nan;95690.69;4981940;28;20616;-70
2023/01/06 08:51:37;;;;;;;2.28;1.52;;;;;;;14.42;nan;95689.34;4982899;28;20689;-72
2023/01/06 08:54:04;;;;;;;1.88;1.40;;;;;;;14.47;nan;95684.88;4981760;28;20212;-71
2023/01/06 08:56:32;;;;;;;1.70;1.58;;;;;;;14.47;nan;95695.13;4981832;28;20225;-73
2023/01/06 08:59:01;;;;;;;4.65;1.90;;;;;;;14.47;nan;95687.44;4982085;28;20208;-72
2023/01/06 09:01:30;;;;;;;1.67;1.48;;;;;;;14.53;nan;95687.22;4982367;28;20228;-72
2023/01/06 09:03:58;;;;;;;1.48;1.27;;;;;;;14.54;nan;95699.13;4981505;28;20208;-72
2023/01/06 09:06:26;;;;;;;5.20;1.52;;;;;;;14.69;nan;95683.16;4981958;28;20697;-71
2023/01/06 09:08:53;;;;;;;1.40;1.20;;;;;;;14.49;nan;95680.56;4981702;28;20255;-73
2023/01/06 09:11:20;;;;;;;1.23;1.15;;;;;;;14.19;nan;95673.13;4982857;28;20212;-72
2023/01/06 09:13:49;;;;;;;1.35;1.30;;;;;;;13.81;nan;95672.00;4980211;28;20239;-75
2023/01/06 09:16:18;;;;;;;4.32;1.38;;;;;;;13.55;nan;95662.72;4982636;28;20238;-72
2023/01/06 09:18:48;;;;;;;3.17;1.30;;;;;;;13.73;nan;95670.63;4981524;28;20686;-72
2023/01/06 09:21:16;;;;;;;1.20;1.20;;;;;;;13.74;nan;95650.13;4981834;28;20215;-72
2023/01/06 09:23:42;;;;;;;2.90;1.42;;;;;;;13.85;nan;95667.63;4980972;28;20891;-71
2023/01/06 09:26:09;;;;;;;3.42;1.50;;;;;;;13.94;nan;95657.06;4982205;28;20200;-70
2023/01/06 09:28:36;;;;;;;2.28;1.42;;;;;;;14.20;nan;95666.28;4982587;28;20209;-71
2023/01/06 09:31:03;;;;;;;1.52;1.42;;;;;;;14.44;nan;95667.94;4982091;28;20675;-71
2023/01/06 09:33:31;;;;;;;6.38;1.42;;;;;;;14.74;nan;95650.56;4981779;28;20900;-72
2023/01/06 09:35:57;;;;;;;3.42;1.50;;;;;;;14.74;nan;95660.78;4981036;28;21459;-72
2023/01/06 09:38:25;;;;;;;1.20;1.10;;;;;;;14.84;nan;95664.66;4981754;28;20942;-72
2023/01/06 09:41:11;;;;;;;1.00;0.88;;;;;;;14.91;nan;95652.41;4981931;28;20314;-73
2023/01/06 09:43:46;;;;;;;6.85;1.55;;;;;;;14.64;nan;95642.41;4980452;28;20211;-69
2023/01/06 09:46:17;;;;;;;1.60;1.10;;;;;;;14.25;nan;95642.22;4980988;28;20945;-71
2023/01/06 09:48:56;;;;;;;5.45;1.00;;;;;;;13.84;nan;95637.84;4983547;28;20267;-71
2023/01/06 09:51:25;;;;;;;1.27;1.17;;;;;;;13.47;nan;95646.84;4985142;28;20215;-76
2023/01/06 09:53:57;;;;;;;2.22;0.90;;;;;;;13.08;nan;95632.91;4985104;28;20653;-70
2023/01/06 09:56:25;;;;;;;3.03;1.23;;;;;;;12.69;nan;95640.13;4983584;28;20236;-72
2023/01/06 09:58:58;;;;;;;1.10;1.00;;;;;;;12.51;nan;95629.66;4984742;28;20716;-73
2023/01/06 10:01:28;;;;;;;2.15;0.90;;;;;;;12.48;nan;95642.50;4984541;28;20717;-72
2023/01/06 10:03:58;;;;;;;0.85;0.85;;;;;;;12.36;nan;95631.88;4984968;28;20204;-69
2023/01/06 10:06:32;;;;;;;3.63;1.55;;;;;;;12.12;nan;95634.28;4984344;28;20766;-72
2023/01/06 10:09:17;;;;;;;1.00;1.00;;;;;;;11.89;nan;95629.88;4984814;28;21669;-71
2023/01/06 10:11:57;;;;;;;1.20;1.10;;;;;;;11.86;nan;95626.59;4984285;28;20634;-72
2023/01/06 10:14:37;;;;;;;1.85;1.75;;;;;;;11.92;nan;95626.41;4984540;28;20275;-72
2023/01/06 10:17:21;;;;;;;5.00;1.50;;;;;;;11.82;nan;95625.84;4985058;28;20240;-71
2023/01/06 10:19:59;;;;;;;1.17;1.08;;;;;;;11.90;nan;95620.50;4984367;28;20246;-72
2023/01/06 10:22:34;;;;;;;1.10;1.05;;;;;;;12.26;nan;95618.56;4984362;28;20262;-70
2023/01/06 10:25:10;;;;;;;5.53;1.70;;;;;;;12.46;nan;95612.84;4984913;28;20220;-71
2023/01/06 10:27:39;;;;;;;1.35;1.30;;;;;;;12.69;nan;95623.13;4983089;28;20219;-74
2023/01/06 10:30:18;;;;;;;1.10;1.10;;;;;;;13.12;nan;95631.88;4983252;28;20216;-71
2023/01/06 10:32:47;;;;;;;2.80;1.55;;;;;;;13.53;nan;95626.19;4983725;28;20212;-71
2023/01/06 10:35:18;;;;;;;6.13;1.50;;;;;;;13.72;nan;95610.19;4984889;28;20217;-71
2023/01/06 10:37:48;;;;;;;1.70;1.60;;;;;;;13.96;nan;95619.50;4983064;28;20696;-71
2023/01/06 10:40:20;;;;;;;1.10;1.05;;;;;;;14.07;nan;95626.78;4982467;28;20271;-72
2023/01/06 10:42:55;;;;;;;2.15;1.60;;;;;;;14.18;nan;95625.44;4982461;28;20880;-71
2023/01/06 10:45:22;;;;;;;0.90;0.90;;;;;;;14.33;nan;95608.69;4986828;28;20670;-73
2023/01/06 10:47:49;;;;;;;1.30;1.30;;;;;;;14.31;nan;95610.47;4983871;28;20266;-74
2023/01/06 10:50:19;;;;;;;3.08;2.30;;;;;;;14.20;nan;95589.59;4986469;28;20213;-72
2023/01/06 10:52:47;;;;;;;1.70;1.60;;;;;;;14.08;nan;95587.53;4985156;28;20217;-72
2023/01/06 10:55:36;;;;;;;1.67;1.58;;;;;;;14.18;nan;95584.56;4985290;28;20216;-73
2023/01/06 10:58:14;;;;;;;6.05;1.30;;;;;;;14.16;nan;95576.09;4985555;28;20208;-72
2023/01/06 11:00:55;;;;;;;1.77;1.67;;;;;;;14.16;nan;95576.09;4985619;28;20629;-72
2023/01/06 11:03:22;;;;;;;1.58;1.38;;;;;;;14.20;nan;95582.78;4983592;28;20631;-71
2023/01/06 11:06:00;;;;;;;2.63;1.70;;;;;;;14.12;nan;95569.44;4983030;28;20661;-72
2023/01/06 11:08:27;;;;;;;2.78;1.20;;;;;;;13.87;nan;95579.78;4985224;28;20210;-71
2023/01/06 11:10:56;;;;;;;1.75;1.65;;;;;;;13.46;nan;95578.78;4983146;28;20207;-73
2023/01/06 11:13:26;;;;;;;3.15;2.75;;;;;;;13.05;nan;95585.34;4984040;28;21227;-73
2023/01/06 11:15:54;;;;;;;2.10;1.25;;;;;;;12.82;nan;95572.56;4985191;28;20228;-70
2023/01/06 11:18:24;;;;;;;2.45;1.77;;;;;;;12.59;nan;95575.88;4984284;28;20223;-72
2023/01/06 11:21:04;;;;;;;1.05;1.00;;;;;;;12.37;nan;95574.91;4986704;28;20620;-72
2023/01/06 11:23:31;;;;;;;1.35;1.25;;;;;;;12.22;nan;95584.69;4984845;28;20204;-72
2023/01/06 11:26:09;;;;;;;1.45;1.35;;;;;;;12.17;nan;95576.38;4986162;28;20829;-72
2023/01/06 11:28:36;;;;;;;1.27;1.17;;;;;;;12.35;nan;95580.06;4986061;28;20713;-73
2023/01/06 11:31:06;;;;;;;3.75;1.60;;;;;;;12.52;nan;95577.78;4985552;28;20274;-72
2023/01/06 11:33:36;;;;;;;1.65;1.35;;;;;;;12.53;nan;95578.63;4986869;28;20707;-72
2023/01/06 11:36:10;;;;;;;1.83;1.58;;;;;;;12.36;nan;95575.81;4986102;28;20231;-73
2023/01/06 11:38:46;;;;;;;1.60;1.50;;;;;;;12.24;nan;95572.75;4986196;28;20205;-72
2023/01/06 11:41:23;;;;;;;1.52;1.40;;;;;;;12.03;nan;95573.44;4985945;28;20208;-73
2023/01/06 11:43:50;;;;;;;2.53;1.67;;;;;;;12.01;nan;95570.09;4986731;28;20220;-74
2023/01/06 11:46:24;;;;;;;1.85;1.75;;;;;;;12.00;nan;95573.53;4985853;28;20201;-74
2023/01/06 11:49:00;;;;;;;7.15;1.70;;;;;;;12.08;nan;95578.38;4984870;28;20688;-73
2023/01/06 11:51:47;;;;;;;1.30;1.20;;;;;;;12.18;nan;95580.59;4985719;28;20208;-72
2023/01/06 11:54:28;;;;;;;3.70;1.60;;;;;;;12.35;nan;95579.22;4984412;28;20295;-70
2023/01/06 11:56:59;;;;;;;1.52;1.42;;;;;;;12.52;nan;95584.59;4983194;28;20223;-70
2023/01/06 11:59:31;;;;;;;1.50;1.40;;;;;;;12.71;nan;95590.75;4984112;28;20208;-71
2023/01/06 12:01:59;;;;;;;5.07;1.80;;;;;;;12.87;nan;95583.41;4985354;28;20236;-72
2023/01/06 12:04:33;;;;;;;5.75;1.52;;;;;;;12.95;nan;95582.28;4985641;28;20239;-73
2023/01/06 12:07:12;;;;;;;3.08;1.58;;;;;;;12.89;nan;95571.44;4985191;28;20212;-70
2023/01/06 12:09:44;;;;;;;3.88;2.17;;;;;;;12.94;nan;95580.59;4982685;28;20223;-71
2023/01/06 12:12:15;;;;;;;3.00;2.10;;;;;;;13.03;nan;95576.91;4984394;28;20244;-71